sensor_id;sensor_type;location;lat;lon;timestamp;P1;durP1;ratioP1;P2;durP2;ratioP2
15833;SDS011;8017;50.812;4.934;2022-11-04T00:01:17;7.53;;;3.20;;
15833;SDS011;8017;50.812;4.934;2022-11-04T00:04:22;6.10;;;2.90;;
15833;SDS011;8017;50.812;4.934;2022-11-04T00:07:26;5.93;;;3.23;;
15833;SDS011;8017;50.812;4.934;2022-11-04T00:10:45;7.50;;;3.60;;
15833;SDS011;8017;50.812;4.934;2022-11-04T00:14:07;6.93;;;3.47;;
15833;SDS011;8017;50.812;4.934;2022-11-04T00:17:10;6.77;;;3.83;;
15833;SDS011;8017;50.812;4.934;2022-11-04T00:20:24;7.83;;;3.73;;
15833;SDS011;8017;50.812;4.934;2022-11-04T00:23:44;7.23;;;3.67;;
15833;SDS011;8017;50.812;4.934;2022-11-04T00:27:02;7.60;;;3.50;;
15833;SDS011;8017;50.812;4.934;2022-11-04T00:30:27;6.50;;;3.63;;
15833;SDS011;8017;50.812;4.934;2022-11-04T00:33:29;6.40;;;3.53;;
15833;SDS011;8017;50.812;4.934;2022-11-04T00:36:31;13.03;;;3.87;;
15833;SDS011;8017;50.812;4.934;2022-11-04T00:39:33;8.10;;;3.60;;
15833;SDS011;8017;50.812;4.934;2022-11-04T00:42:35;10.90;;;3.80;;
15833;SDS011;8017;50.812;4.934;2022-11-04T00:45:38;10.37;;;4.37;;
15833;SDS011;8017;50.812;4.934;2022-11-04T00:48:41;9.30;;;3.60;;
15833;SDS011;8017;50.812;4.934;2022-11-04T00:51:44;7.07;;;2.97;;
15833;SDS011;8017;50.812;4.934;2022-11-04T00:54:46;10.00;;;3.33;;
15833;SDS011;8017;50.812;4.934;2022-11-04T00:57:48;11.10;;;3.50;;
15833;SDS011;8017;50.812;4.934;2022-11-04T01:00:50;8.13;;;3.47;;
15833;SDS011;8017;50.812;4.934;2022-11-04T01:03:52;9.43;;;3.30;;
15833;SDS011;8017;50.812;4.934;2022-11-04T01:06:56;9.33;;;3.63;;
15833;SDS011;8017;50.812;4.934;2022-11-04T01:09:57;6.73;;;3.87;;
15833;SDS011;8017;50.812;4.934;2022-11-04T01:12:59;7.37;;;3.30;;
15833;SDS011;8017;50.812;4.934;2022-11-04T01:16:02;8.53;;;3.37;;
15833;SDS011;8017;50.812;4.934;2022-11-04T01:19:06;15.43;;;3.37;;
15833;SDS011;8017;50.812;4.934;2022-11-04T01:22:09;12.30;;;3.20;;
15833;SDS011;8017;50.812;4.934;2022-11-04T01:25:11;12.53;;;2.93;;
15833;SDS011;8017;50.812;4.934;2022-11-04T01:28:13;14.90;;;3.40;;
15833;SDS011;8017;50.812;4.934;2022-11-04T01:31:16;13.23;;;3.20;;
15833;SDS011;8017;50.812;4.934;2022-11-04T01:34:20;10.57;;;3.20;;
15833;SDS011;8017;50.812;4.934;2022-11-04T01:37:23;13.63;;;3.80;;
15833;SDS011;8017;50.812;4.934;2022-11-04T01:40:25;6.63;;;2.53;;
15833;SDS011;8017;50.812;4.934;2022-11-04T01:43:41;12.20;;;2.33;;
15833;SDS011;8017;50.812;4.934;2022-11-04T01:46:45;10.10;;;2.43;;
15833;SDS011;8017;50.812;4.934;2022-11-04T01:49:52;10.27;;;2.90;;
15833;SDS011;8017;50.812;4.934;2022-11-04T01:52:59;10.27;;;2.30;;
15833;SDS011;8017;50.812;4.934;2022-11-04T01:56:06;7.30;;;3.00;;
15833;SDS011;8017;50.812;4.934;2022-11-04T01:59:12;10.07;;;3.37;;
15833;SDS011;8017;50.812;4.934;2022-11-04T02:02:18;10.80;;;3.40;;
15833;SDS011;8017;50.812;4.934;2022-11-04T02:05:20;7.43;;;3.30;;
15833;SDS011;8017;50.812;4.934;2022-11-04T02:08:24;9.10;;;3.73;;
15833;SDS011;8017;50.812;4.934;2022-11-04T02:11:27;12.87;;;4.30;;
15833;SDS011;8017;50.812;4.934;2022-11-04T02:14:47;11.80;;;3.73;;
15833;SDS011;8017;50.812;4.934;2022-11-04T02:21:24;11.40;;;3.60;;
15833;SDS011;8017;50.812;4.934;2022-11-04T02:24:44;13.37;;;3.60;;
15833;SDS011;8017;50.812;4.934;2022-11-04T02:28:10;9.93;;;3.40;;
15833;SDS011;8017;50.812;4.934;2022-11-04T02:31:36;13.90;;;3.33;;
15833;SDS011;8017;50.812;4.934;2022-11-04T02:34:49;8.13;;;3.30;;
15833;SDS011;8017;50.812;4.934;2022-11-04T02:38:01;7.73;;;3.50;;
15833;SDS011;8017;50.812;4.934;2022-11-04T02:41:12;10.30;;;3.77;;
15833;SDS011;8017;50.812;4.934;2022-11-04T02:44:25;9.90;;;4.10;;
15833;SDS011;8017;50.812;4.934;2022-11-04T02:47:33;11.47;;;3.60;;
15833;SDS011;8017;50.812;4.934;2022-11-04T02:50:40;10.97;;;4.07;;
15833;SDS011;8017;50.812;4.934;2022-11-04T02:53:46;11.37;;;4.27;;
15833;SDS011;8017;50.812;4.934;2022-11-04T02:56:57;12.23;;;4.90;;
15833;SDS011;8017;50.812;4.934;2022-11-04T03:00:02;8.10;;;3.57;;
15833;SDS011;8017;50.812;4.934;2022-11-04T03:03:08;13.93;;;4.07;;
15833;SDS011;8017;50.812;4.934;2022-11-04T03:06:13;7.97;;;3.80;;
15833;SDS011;8017;50.812;4.934;2022-11-04T03:09:17;7.27;;;4.00;;
15833;SDS011;8017;50.812;4.934;2022-11-04T03:12:23;11.17;;;4.43;;
15833;SDS011;8017;50.812;4.934;2022-11-04T03:15:30;9.10;;;4.00;;
15833;SDS011;8017;50.812;4.934;2022-11-04T03:18:37;10.27;;;3.43;;
15833;SDS011;8017;50.812;4.934;2022-11-04T03:21:48;7.60;;;3.03;;
15833;SDS011;8017;50.812;4.934;2022-11-04T03:24:54;7.37;;;3.60;;
15833;SDS011;8017;50.812;4.934;2022-11-04T03:27:58;7.93;;;3.40;;
15833;SDS011;8017;50.812;4.934;2022-11-04T03:31:05;9.13;;;3.57;;
15833;SDS011;8017;50.812;4.934;2022-11-04T03:34:15;10.60;;;3.27;;
15833;SDS011;8017;50.812;4.934;2022-11-04T03:37:17;9.40;;;3.37;;
15833;SDS011;8017;50.812;4.934;2022-11-04T03:40:19;12.63;;;3.70;;
15833;SDS011;8017;50.812;4.934;2022-11-04T03:43:22;14.00;;;3.50;;
15833;SDS011;8017;50.812;4.934;2022-11-04T03:46:27;17.87;;;3.67;;
15833;SDS011;8017;50.812;4.934;2022-11-04T03:49:30;10.93;;;3.70;;
15833;SDS011;8017;50.812;4.934;2022-11-04T03:52:32;7.57;;;3.10;;
15833;SDS011;8017;50.812;4.934;2022-11-04T03:55:37;11.23;;;3.83;;
15833;SDS011;8017;50.812;4.934;2022-11-04T03:58:44;10.73;;;3.60;;
15833;SDS011;8017;50.812;4.934;2022-11-04T04:01:54;10.67;;;3.33;;
15833;SDS011;8017;50.812;4.934;2022-11-04T04:05:01;8.30;;;2.70;;
15833;SDS011;8017;50.812;4.934;2022-11-04T04:08:11;14.03;;;3.67;;
15833;SDS011;8017;50.812;4.934;2022-11-04T04:11:18;10.33;;;3.80;;
15833;SDS011;8017;50.812;4.934;2022-11-04T04:14:27;9.83;;;3.33;;
15833;SDS011;8017;50.812;4.934;2022-11-04T04:17:41;9.30;;;3.20;;
15833;SDS011;8017;50.812;4.934;2022-11-04T04:20:50;14.03;;;3.47;;
15833;SDS011;8017;50.812;4.934;2022-11-04T04:23:55;11.03;;;3.03;;
15833;SDS011;8017;50.812;4.934;2022-11-04T04:27:18;7.67;;;2.60;;
15833;SDS011;8017;50.812;4.934;2022-11-04T04:30:33;11.23;;;2.90;;
15833;SDS011;8017;50.812;4.934;2022-11-04T04:33:37;6.83;;;2.90;;
15833;SDS011;8017;50.812;4.934;2022-11-04T04:36:41;7.90;;;2.70;;
15833;SDS011;8017;50.812;4.934;2022-11-04T04:39:47;9.27;;;2.83;;
15833;SDS011;8017;50.812;4.934;2022-11-04T04:43:12;7.17;;;2.77;;
15833;SDS011;8017;50.812;4.934;2022-11-04T04:46:33;10.90;;;3.17;;
15833;SDS011;8017;50.812;4.934;2022-11-04T04:49:44;10.50;;;2.80;;
15833;SDS011;8017;50.812;4.934;2022-11-04T04:52:52;7.33;;;2.73;;
15833;SDS011;8017;50.812;4.934;2022-11-04T04:55:56;10.40;;;2.73;;
15833;SDS011;8017;50.812;4.934;2022-11-04T04:58:58;5.10;;;2.80;;
15833;SDS011;8017;50.812;4.934;2022-11-04T05:02:00;8.33;;;2.90;;
15833;SDS011;8017;50.812;4.934;2022-11-04T05:05:03;7.80;;;2.40;;
15833;SDS011;8017;50.812;4.934;2022-11-04T05:08:06;11.30;;;2.63;;
15833;SDS011;8017;50.812;4.934;2022-11-04T05:11:09;11.60;;;3.00;;
15833;SDS011;8017;50.812;4.934;2022-11-04T05:14:11;8.40;;;2.67;;
15833;SDS011;8017;50.812;4.934;2022-11-04T05:17:13;9.63;;;2.80;;
15833;SDS011;8017;50.812;4.934;2022-11-04T05:20:15;10.50;;;3.10;;
15833;SDS011;8017;50.812;4.934;2022-11-04T05:23:19;7.60;;;2.27;;
15833;SDS011;8017;50.812;4.934;2022-11-04T05:26:21;9.10;;;2.80;;
15833;SDS011;8017;50.812;4.934;2022-11-04T05:29:23;10.00;;;2.87;;
15833;SDS011;8017;50.812;4.934;2022-11-04T05:32:27;7.77;;;2.50;;
15833;SDS011;8017;50.812;4.934;2022-11-04T05:35:29;10.73;;;3.37;;
15833;SDS011;8017;50.812;4.934;2022-11-04T05:38:32;14.17;;;3.27;;
15833;SDS011;8017;50.812;4.934;2022-11-04T05:41:34;10.27;;;3.10;;
15833;SDS011;8017;50.812;4.934;2022-11-04T05:44:36;10.33;;;3.13;;
15833;SDS011;8017;50.812;4.934;2022-11-04T05:47:38;12.03;;;3.20;;
15833;SDS011;8017;50.812;4.934;2022-11-04T05:50:40;8.10;;;2.60;;
15833;SDS011;8017;50.812;4.934;2022-11-04T05:53:43;5.27;;;2.67;;
15833;SDS011;8017;50.812;4.934;2022-11-04T05:56:46;9.80;;;2.90;;
15833;SDS011;8017;50.812;4.934;2022-11-04T05:59:48;15.80;;;3.17;;
15833;SDS011;8017;50.812;4.934;2022-11-04T06:02:50;8.03;;;2.77;;
15833;SDS011;8017;50.812;4.934;2022-11-04T06:05:52;7.90;;;2.70;;
15833;SDS011;8017;50.812;4.934;2022-11-04T06:08:55;9.70;;;2.50;;
15833;SDS011;8017;50.812;4.934;2022-11-04T06:11:57;6.63;;;2.63;;
15833;SDS011;8017;50.812;4.934;2022-11-04T06:14:59;8.53;;;3.13;;
15833;SDS011;8017;50.812;4.934;2022-11-04T06:18:01;10.93;;;3.27;;
15833;SDS011;8017;50.812;4.934;2022-11-04T06:21:07;9.80;;;2.77;;
15833;SDS011;8017;50.812;4.934;2022-11-04T06:24:12;10.13;;;3.23;;
15833;SDS011;8017;50.812;4.934;2022-11-04T06:27:14;11.60;;;3.40;;
15833;SDS011;8017;50.812;4.934;2022-11-04T06:30:16;13.30;;;3.77;;
15833;SDS011;8017;50.812;4.934;2022-11-04T06:33:18;10.27;;;3.10;;
15833;SDS011;8017;50.812;4.934;2022-11-04T06:36:20;13.27;;;3.33;;
15833;SDS011;8017;50.812;4.934;2022-11-04T06:39:23;10.63;;;2.90;;
15833;SDS011;8017;50.812;4.934;2022-11-04T06:42:25;10.57;;;3.00;;
15833;SDS011;8017;50.812;4.934;2022-11-04T06:45:27;10.57;;;3.37;;
15833;SDS011;8017;50.812;4.934;2022-11-04T06:48:29;12.40;;;3.77;;
15833;SDS011;8017;50.812;4.934;2022-11-04T06:51:32;11.77;;;2.87;;
15833;SDS011;8017;50.812;4.934;2022-11-04T06:54:36;8.30;;;3.03;;
15833;SDS011;8017;50.812;4.934;2022-11-04T06:57:37;6.33;;;2.30;;
15833;SDS011;8017;50.812;4.934;2022-11-04T07:00:39;9.60;;;2.80;;
15833;SDS011;8017;50.812;4.934;2022-11-04T07:03:41;6.87;;;2.60;;
15833;SDS011;8017;50.812;4.934;2022-11-04T07:06:43;11.03;;;2.90;;
15833;SDS011;8017;50.812;4.934;2022-11-04T07:09:47;10.67;;;2.90;;
15833;SDS011;8017;50.812;4.934;2022-11-04T07:12:49;12.07;;;3.47;;
15833;SDS011;8017;50.812;4.934;2022-11-04T07:15:51;7.87;;;2.73;;
15833;SDS011;8017;50.812;4.934;2022-11-04T07:18:53;8.70;;;2.93;;
15833;SDS011;8017;50.812;4.934;2022-11-04T07:21:56;8.10;;;3.30;;
15833;SDS011;8017;50.812;4.934;2022-11-04T07:24:59;8.80;;;3.40;;
15833;SDS011;8017;50.812;4.934;2022-11-04T07:28:01;8.50;;;3.63;;
15833;SDS011;8017;50.812;4.934;2022-11-04T07:31:04;8.20;;;3.47;;
15833;SDS011;8017;50.812;4.934;2022-11-04T07:34:08;10.40;;;3.93;;
15833;SDS011;8017;50.812;4.934;2022-11-04T07:37:12;10.73;;;5.20;;
15833;SDS011;8017;50.812;4.934;2022-11-04T07:40:15;7.33;;;3.00;;
15833;SDS011;8017;50.812;4.934;2022-11-04T07:43:17;7.13;;;2.93;;
15833;SDS011;8017;50.812;4.934;2022-11-04T07:46:19;7.87;;;3.10;;
15833;SDS011;8017;50.812;4.934;2022-11-04T07:49:21;11.03;;;3.13;;
15833;SDS011;8017;50.812;4.934;2022-11-04T07:52:24;13.77;;;3.80;;
15833;SDS011;8017;50.812;4.934;2022-11-04T07:55:28;9.17;;;3.63;;
15833;SDS011;8017;50.812;4.934;2022-11-04T07:58:30;9.83;;;4.27;;
15833;SDS011;8017;50.812;4.934;2022-11-04T08:01:32;10.77;;;3.90;;
15833;SDS011;8017;50.812;4.934;2022-11-04T08:04:34;10.40;;;3.70;;
15833;SDS011;8017;50.812;4.934;2022-11-04T08:07:36;16.27;;;5.50;;
15833;SDS011;8017;50.812;4.934;2022-11-04T08:10:39;12.37;;;4.13;;
15833;SDS011;8017;50.812;4.934;2022-11-04T08:13:41;7.83;;;3.40;;
15833;SDS011;8017;50.812;4.934;2022-11-04T08:16:44;16.03;;;4.30;;
15833;SDS011;8017;50.812;4.934;2022-11-04T08:19:46;12.17;;;4.50;;
15833;SDS011;8017;50.812;4.934;2022-11-04T08:22:47;10.93;;;4.27;;
15833;SDS011;8017;50.812;4.934;2022-11-04T08:25:51;14.80;;;4.10;;
15833;SDS011;8017;50.812;4.934;2022-11-04T08:28:53;11.23;;;4.13;;
15833;SDS011;8017;50.812;4.934;2022-11-04T08:31:55;11.90;;;2.97;;
15833;SDS011;8017;50.812;4.934;2022-11-04T08:34:56;10.57;;;3.10;;
15833;SDS011;8017;50.812;4.934;2022-11-04T08:37:58;10.67;;;3.10;;
15833;SDS011;8017;50.812;4.934;2022-11-04T08:41:02;9.77;;;3.33;;
15833;SDS011;8017;50.812;4.934;2022-11-04T08:44:06;8.00;;;3.07;;
15833;SDS011;8017;50.812;4.934;2022-11-04T08:47:09;8.70;;;2.87;;
15833;SDS011;8017;50.812;4.934;2022-11-04T08:50:11;12.17;;;3.00;;
15833;SDS011;8017;50.812;4.934;2022-11-04T08:53:13;11.60;;;3.10;;
15833;SDS011;8017;50.812;4.934;2022-11-04T08:56:17;6.23;;;2.77;;
15833;SDS011;8017;50.812;4.934;2022-11-04T08:59:20;8.20;;;2.73;;
15833;SDS011;8017;50.812;4.934;2022-11-04T09:02:22;6.63;;;2.73;;
15833;SDS011;8017;50.812;4.934;2022-11-04T09:05:24;10.10;;;3.20;;
15833;SDS011;8017;50.812;4.934;2022-11-04T09:08:26;7.23;;;2.50;;
15833;SDS011;8017;50.812;4.934;2022-11-04T09:11:30;5.03;;;2.37;;
15833;SDS011;8017;50.812;4.934;2022-11-04T09:14:33;4.83;;;2.50;;
15833;SDS011;8017;50.812;4.934;2022-11-04T09:17:35;8.80;;;3.00;;
15833;SDS011;8017;50.812;4.934;2022-11-04T09:20:37;7.73;;;3.27;;
15833;SDS011;8017;50.812;4.934;2022-11-04T09:23:41;9.00;;;3.60;;
15833;SDS011;8017;50.812;4.934;2022-11-04T09:26:44;7.27;;;3.00;;
15833;SDS011;8017;50.812;4.934;2022-11-04T09:29:46;11.23;;;3.57;;
15833;SDS011;8017;50.812;4.934;2022-11-04T09:32:48;8.37;;;3.20;;
15833;SDS011;8017;50.812;4.934;2022-11-04T09:35:53;7.57;;;3.27;;
15833;SDS011;8017;50.812;4.934;2022-11-04T09:38:55;7.47;;;3.07;;
15833;SDS011;8017;50.812;4.934;2022-11-04T09:42:02;7.37;;;3.40;;
15833;SDS011;8017;50.812;4.934;2022-11-04T09:45:24;7.03;;;2.97;;
15833;SDS011;8017;50.812;4.934;2022-11-04T09:48:29;10.63;;;3.67;;
15833;SDS011;8017;50.812;4.934;2022-11-04T09:51:33;8.73;;;2.70;;
15833;SDS011;8017;50.812;4.934;2022-11-04T09:54:40;8.30;;;3.20;;
15833;SDS011;8017;50.812;4.934;2022-11-04T09:57:46;7.13;;;2.43;;
15833;SDS011;8017;50.812;4.934;2022-11-04T10:00:56;8.80;;;3.00;;
15833;SDS011;8017;50.812;4.934;2022-11-04T10:04:07;7.27;;;2.67;;
15833;SDS011;8017;50.812;4.934;2022-11-04T10:07:28;10.33;;;3.83;;
15833;SDS011;8017;50.812;4.934;2022-11-04T10:10:44;7.70;;;3.40;;
15833;SDS011;8017;50.812;4.934;2022-11-04T10:14:09;6.00;;;2.67;;
15833;SDS011;8017;50.812;4.934;2022-11-04T10:17:34;10.20;;;3.10;;
15833;SDS011;8017;50.812;4.934;2022-11-04T10:20:48;8.30;;;2.67;;
15833;SDS011;8017;50.812;4.934;2022-11-04T10:24:01;8.63;;;3.00;;
15833;SDS011;8017;50.812;4.934;2022-11-04T10:27:14;4.53;;;2.13;;
15833;SDS011;8017;50.812;4.934;2022-11-04T10:30:21;10.47;;;3.03;;
15833;SDS011;8017;50.812;4.934;2022-11-04T10:33:25;8.80;;;3.10;;
15833;SDS011;8017;50.812;4.934;2022-11-04T10:36:31;7.40;;;2.87;;
15833;SDS011;8017;50.812;4.934;2022-11-04T10:39:34;6.97;;;2.70;;
15833;SDS011;8017;50.812;4.934;2022-11-04T10:42:39;9.30;;;2.10;;
15833;SDS011;8017;50.812;4.934;2022-11-04T10:45:45;5.23;;;2.27;;
15833;SDS011;8017;50.812;4.934;2022-11-04T10:48:54;7.57;;;2.63;;
15833;SDS011;8017;50.812;4.934;2022-11-04T10:52:01;6.57;;;2.70;;
15833;SDS011;8017;50.812;4.934;2022-11-04T10:55:08;8.43;;;2.67;;
15833;SDS011;8017;50.812;4.934;2022-11-04T10:58:17;6.67;;;2.77;;
15833;SDS011;8017;50.812;4.934;2022-11-04T11:01:25;9.57;;;2.90;;
15833;SDS011;8017;50.812;4.934;2022-11-04T11:04:30;9.80;;;2.57;;
15833;SDS011;8017;50.812;4.934;2022-11-04T11:07:35;10.67;;;2.90;;
15833;SDS011;8017;50.812;4.934;2022-11-04T11:10:37;8.77;;;2.50;;
15833;SDS011;8017;50.812;4.934;2022-11-04T11:13:51;6.33;;;2.50;;
15833;SDS011;8017;50.812;4.934;2022-11-04T11:16:55;10.37;;;2.67;;
15833;SDS011;8017;50.812;4.934;2022-11-04T11:19:58;8.50;;;2.60;;
15833;SDS011;8017;50.812;4.934;2022-11-04T11:23:05;10.00;;;2.87;;
15833;SDS011;8017;50.812;4.934;2022-11-04T11:26:30;11.80;;;2.83;;
15833;SDS011;8017;50.812;4.934;2022-11-04T11:29:33;6.43;;;2.30;;
15833;SDS011;8017;50.812;4.934;2022-11-04T11:32:39;9.17;;;2.93;;
15833;SDS011;8017;50.812;4.934;2022-11-04T11:35:45;8.20;;;2.53;;
15833;SDS011;8017;50.812;4.934;2022-11-04T11:39:00;9.47;;;3.13;;
15833;SDS011;8017;50.812;4.934;2022-11-04T11:42:07;8.27;;;3.03;;
15833;SDS011;8017;50.812;4.934;2022-11-04T11:45:15;9.43;;;2.90;;
15833;SDS011;8017;50.812;4.934;2022-11-04T11:48:27;8.43;;;2.80;;
15833;SDS011;8017;50.812;4.934;2022-11-04T11:51:31;7.67;;;2.80;;
15833;SDS011;8017;50.812;4.934;2022-11-04T11:54:34;9.30;;;2.83;;
15833;SDS011;8017;50.812;4.934;2022-11-04T11:57:41;8.53;;;3.10;;
15833;SDS011;8017;50.812;4.934;2022-11-04T12:00:51;5.93;;;3.10;;
15833;SDS011;8017;50.812;4.934;2022-11-04T12:03:58;11.93;;;3.17;;
15833;SDS011;8017;50.812;4.934;2022-11-04T12:07:02;5.43;;;2.97;;
15833;SDS011;8017;50.812;4.934;2022-11-04T12:10:12;8.77;;;3.20;;
15833;SDS011;8017;50.812;4.934;2022-11-04T12:13:26;9.20;;;3.20;;
15833;SDS011;8017;50.812;4.934;2022-11-04T12:16:33;11.57;;;3.60;;
15833;SDS011;8017;50.812;4.934;2022-11-04T12:19:48;7.47;;;3.17;;
15833;SDS011;8017;50.812;4.934;2022-11-04T12:23:06;11.07;;;3.77;;
15833;SDS011;8017;50.812;4.934;2022-11-04T12:26:20;10.17;;;3.93;;
15833;SDS011;8017;50.812;4.934;2022-11-04T12:29:38;11.50;;;4.03;;
15833;SDS011;8017;50.812;4.934;2022-11-04T12:32:55;9.63;;;4.47;;
15833;SDS011;8017;50.812;4.934;2022-11-04T12:36:11;11.33;;;3.97;;
15833;SDS011;8017;50.812;4.934;2022-11-04T12:43:07;11.70;;;5.33;;
15833;SDS011;8017;50.812;4.934;2022-11-04T12:46:20;9.70;;;5.73;;
15833;SDS011;8017;50.812;4.934;2022-11-04T12:49:35;13.77;;;6.57;;
15833;SDS011;8017;50.812;4.934;2022-11-04T12:53:15;10.67;;;6.50;;
15833;SDS011;8017;50.812;4.934;2022-11-04T12:56:35;14.37;;;6.43;;
15833;SDS011;8017;50.812;4.934;2022-11-04T12:59:50;9.00;;;6.87;;
15833;SDS011;8017;50.812;4.934;2022-11-04T13:03:04;12.17;;;7.23;;
15833;SDS011;8017;50.812;4.934;2022-11-04T13:06:14;14.43;;;8.20;;
15833;SDS011;8017;50.812;4.934;2022-11-04T13:09:36;13.80;;;7.10;;
15833;SDS011;8017;50.812;4.934;2022-11-04T13:12:42;11.70;;;8.00;;
15833;SDS011;8017;50.812;4.934;2022-11-04T13:15:47;10.73;;;7.27;;
15833;SDS011;8017;50.812;4.934;2022-11-04T13:18:53;13.00;;;8.03;;
15833;SDS011;8017;50.812;4.934;2022-11-04T13:21:57;16.60;;;8.40;;
15833;SDS011;8017;50.812;4.934;2022-11-04T13:25:04;11.87;;;8.23;;
15833;SDS011;8017;50.812;4.934;2022-11-04T13:28:14;11.03;;;7.70;;
15833;SDS011;8017;50.812;4.934;2022-11-04T13:31:21;11.90;;;7.60;;
15833;SDS011;8017;50.812;4.934;2022-11-04T13:34:33;13.30;;;8.57;;
15833;SDS011;8017;50.812;4.934;2022-11-04T13:37:43;10.47;;;7.93;;
15833;SDS011;8017;50.812;4.934;2022-11-04T13:40:55;13.97;;;8.13;;
15833;SDS011;8017;50.812;4.934;2022-11-04T13:44:11;13.83;;;8.53;;
15833;SDS011;8017;50.812;4.934;2022-11-04T13:47:18;12.60;;;8.17;;
15833;SDS011;8017;50.812;4.934;2022-11-04T13:50:27;12.70;;;8.10;;
15833;SDS011;8017;50.812;4.934;2022-11-04T13:53:41;10.20;;;7.80;;
15833;SDS011;8017;50.812;4.934;2022-11-04T13:56:45;13.67;;;8.37;;
15833;SDS011;8017;50.812;4.934;2022-11-04T14:03:38;14.17;;;8.73;;
15833;SDS011;8017;50.812;4.934;2022-11-04T14:06:54;15.73;;;8.63;;
15833;SDS011;8017;50.812;4.934;2022-11-04T14:09:57;15.90;;;9.77;;
15833;SDS011;8017;50.812;4.934;2022-11-04T14:16:40;14.67;;;10.33;;
15833;SDS011;8017;50.812;4.934;2022-11-04T14:19:52;16.03;;;10.50;;
15833;SDS011;8017;50.812;4.934;2022-11-04T14:23:00;14.13;;;11.63;;
15833;SDS011;8017;50.812;4.934;2022-11-04T14:26:04;18.00;;;11.60;;
15833;SDS011;8017;50.812;4.934;2022-11-04T14:29:08;14.90;;;12.10;;
15833;SDS011;8017;50.812;4.934;2022-11-04T14:32:30;16.27;;;11.77;;
15833;SDS011;8017;50.812;4.934;2022-11-04T14:35:36;17.83;;;13.90;;
15833;SDS011;8017;50.812;4.934;2022-11-04T14:38:39;19.37;;;13.87;;
15833;SDS011;8017;50.812;4.934;2022-11-04T14:41:53;15.67;;;13.17;;
15833;SDS011;8017;50.812;4.934;2022-11-04T14:44:56;16.00;;;12.80;;
15833;SDS011;8017;50.812;4.934;2022-11-04T14:48:00;14.57;;;11.37;;
15833;SDS011;8017;50.812;4.934;2022-11-04T14:51:19;16.13;;;12.50;;
15833;SDS011;8017;50.812;4.934;2022-11-04T14:54:30;18.43;;;15.27;;
15833;SDS011;8017;50.812;4.934;2022-11-04T14:57:37;21.20;;;17.47;;
15833;SDS011;8017;50.812;4.934;2022-11-04T15:00:48;23.60;;;17.60;;
15833;SDS011;8017;50.812;4.934;2022-11-04T15:03:53;23.83;;;18.87;;
15833;SDS011;8017;50.812;4.934;2022-11-04T15:06:56;26.03;;;18.73;;
15833;SDS011;8017;50.812;4.934;2022-11-04T15:10:01;21.13;;;17.07;;
15833;SDS011;8017;50.812;4.934;2022-11-04T15:13:06;17.87;;;15.53;;
15833;SDS011;8017;50.812;4.934;2022-11-04T15:16:09;21.03;;;13.77;;
15833;SDS011;8017;50.812;4.934;2022-11-04T15:19:17;13.60;;;11.10;;
15833;SDS011;8017;50.812;4.934;2022-11-04T15:22:27;12.73;;;9.87;;
15833;SDS011;8017;50.812;4.934;2022-11-04T15:25:31;14.07;;;9.60;;
15833;SDS011;8017;50.812;4.934;2022-11-04T15:28:34;10.47;;;7.93;;
15833;SDS011;8017;50.812;4.934;2022-11-04T15:31:52;9.43;;;7.13;;
15833;SDS011;8017;50.812;4.934;2022-11-04T15:34:55;8.97;;;7.00;;
15833;SDS011;8017;50.812;4.934;2022-11-04T15:37:59;10.63;;;6.73;;
15833;SDS011;8017;50.812;4.934;2022-11-04T15:41:04;11.17;;;6.23;;
15833;SDS011;8017;50.812;4.934;2022-11-04T15:44:20;10.37;;;6.10;;
15833;SDS011;8017;50.812;4.934;2022-11-04T15:47:25;5.70;;;5.10;;
15833;SDS011;8017;50.812;4.934;2022-11-04T15:50:28;13.27;;;5.70;;
15833;SDS011;8017;50.812;4.934;2022-11-04T15:53:31;7.93;;;5.50;;
15833;SDS011;8017;50.812;4.934;2022-11-04T15:56:40;8.07;;;5.23;;
15833;SDS011;8017;50.812;4.934;2022-11-04T15:59:44;6.43;;;4.83;;
15833;SDS011;8017;50.812;4.934;2022-11-04T16:02:50;6.03;;;4.90;;
15833;SDS011;8017;50.812;4.934;2022-11-04T16:06:01;8.60;;;4.40;;
15833;SDS011;8017;50.812;4.934;2022-11-04T16:09:05;7.30;;;4.43;;
15833;SDS011;8017;50.812;4.934;2022-11-04T16:12:33;9.67;;;4.23;;
15833;SDS011;8017;50.812;4.934;2022-11-04T16:15:36;8.50;;;4.67;;
15833;SDS011;8017;50.812;4.934;2022-11-04T16:18:41;6.00;;;3.03;;
15833;SDS011;8017;50.812;4.934;2022-11-04T16:21:48;6.50;;;3.03;;
15833;SDS011;8017;50.812;4.934;2022-11-04T16:25:00;6.43;;;3.60;;
15833;SDS011;8017;50.812;4.934;2022-11-04T16:28:14;8.70;;;3.60;;
15833;SDS011;8017;50.812;4.934;2022-11-04T16:31:23;7.03;;;3.50;;
15833;SDS011;8017;50.812;4.934;2022-11-04T16:34:27;5.27;;;2.50;;
15833;SDS011;8017;50.812;4.934;2022-11-04T16:37:29;4.77;;;2.20;;
15833;SDS011;8017;50.812;4.934;2022-11-04T16:40:31;6.53;;;1.83;;
15833;SDS011;8017;50.812;4.934;2022-11-04T16:43:39;4.67;;;1.50;;
15833;SDS011;8017;50.812;4.934;2022-11-04T16:46:41;2.97;;;1.13;;
15833;SDS011;8017;50.812;4.934;2022-11-04T16:49:44;3.07;;;1.20;;
15833;SDS011;8017;50.812;4.934;2022-11-04T16:52:47;5.27;;;1.40;;
15833;SDS011;8017;50.812;4.934;2022-11-04T16:55:49;2.80;;;1.30;;
15833;SDS011;8017;50.812;4.934;2022-11-04T16:58:52;2.77;;;1.30;;
15833;SDS011;8017;50.812;4.934;2022-11-04T17:01:54;3.50;;;1.53;;
15833;SDS011;8017;50.812;4.934;2022-11-04T17:04:56;2.80;;;1.53;;
15833;SDS011;8017;50.812;4.934;2022-11-04T17:07:58;4.37;;;1.50;;
15833;SDS011;8017;50.812;4.934;2022-11-04T17:11:00;3.53;;;1.63;;
15833;SDS011;8017;50.812;4.934;2022-11-04T17:14:04;2.70;;;1.40;;
15833;SDS011;8017;50.812;4.934;2022-11-04T17:17:05;5.47;;;1.90;;
15833;SDS011;8017;50.812;4.934;2022-11-04T17:20:09;4.37;;;1.53;;
15833;SDS011;8017;50.812;4.934;2022-11-04T17:23:14;4.07;;;2.20;;
15833;SDS011;8017;50.812;4.934;2022-11-04T17:26:16;3.33;;;2.13;;
15833;SDS011;8017;50.812;4.934;2022-11-04T17:29:19;5.00;;;2.30;;
15833;SDS011;8017;50.812;4.934;2022-11-04T17:32:21;3.60;;;2.00;;
15833;SDS011;8017;50.812;4.934;2022-11-04T17:35:23;5.20;;;2.87;;
15833;SDS011;8017;50.812;4.934;2022-11-04T17:38:25;5.40;;;2.40;;
15833;SDS011;8017;50.812;4.934;2022-11-04T17:41:27;8.70;;;3.10;;
15833;SDS011;8017;50.812;4.934;2022-11-04T17:44:48;5.80;;;2.10;;
15833;SDS011;8017;50.812;4.934;2022-11-04T17:47:50;7.83;;;2.27;;
15833;SDS011;8017;50.812;4.934;2022-11-04T17:50:52;6.70;;;3.07;;
15833;SDS011;8017;50.812;4.934;2022-11-04T17:53:54;5.70;;;2.87;;
15833;SDS011;8017;50.812;4.934;2022-11-04T17:56:56;5.67;;;3.20;;
15833;SDS011;8017;50.812;4.934;2022-11-04T17:59:59;4.17;;;3.20;;
15833;SDS011;8017;50.812;4.934;2022-11-04T18:03:04;4.30;;;3.13;;
15833;SDS011;8017;50.812;4.934;2022-11-04T18:06:07;6.10;;;4.00;;
15833;SDS011;8017;50.812;4.934;2022-11-04T18:09:10;7.43;;;3.83;;
15833;SDS011;8017;50.812;4.934;2022-11-04T18:12:14;7.77;;;4.30;;
15833;SDS011;8017;50.812;4.934;2022-11-04T18:15:34;9.07;;;5.53;;
15833;SDS011;8017;50.812;4.934;2022-11-04T18:18:36;8.20;;;4.90;;
15833;SDS011;8017;50.812;4.934;2022-11-04T18:21:38;10.03;;;5.60;;
15833;SDS011;8017;50.812;4.934;2022-11-04T18:24:40;9.40;;;5.30;;
15833;SDS011;8017;50.812;4.934;2022-11-04T18:27:42;9.63;;;5.40;;
15833;SDS011;8017;50.812;4.934;2022-11-04T18:30:46;9.57;;;6.10;;
15833;SDS011;8017;50.812;4.934;2022-11-04T18:33:47;10.40;;;6.93;;
15833;SDS011;8017;50.812;4.934;2022-11-04T18:36:49;10.50;;;6.90;;
15833;SDS011;8017;50.812;4.934;2022-11-04T18:39:51;9.00;;;6.03;;
15833;SDS011;8017;50.812;4.934;2022-11-04T18:42:53;8.23;;;6.70;;
15833;SDS011;8017;50.812;4.934;2022-11-04T18:45:57;9.13;;;5.93;;
15833;SDS011;8017;50.812;4.934;2022-11-04T18:48:58;12.23;;;6.77;;
15833;SDS011;8017;50.812;4.934;2022-11-04T18:52:00;12.90;;;8.03;;
15833;SDS011;8017;50.812;4.934;2022-11-04T18:55:02;11.33;;;8.07;;
15833;SDS011;8017;50.812;4.934;2022-11-04T18:58:05;12.13;;;8.07;;
15833;SDS011;8017;50.812;4.934;2022-11-04T19:01:09;9.90;;;6.93;;
15833;SDS011;8017;50.812;4.934;2022-11-04T19:04:12;12.30;;;7.20;;
15833;SDS011;8017;50.812;4.934;2022-11-04T19:07:14;10.80;;;6.83;;